sensor_id;sensor_type;location;lat;lon;timestamp;pressure;altitude;pressure_sealevel;temperature;humidity
69911;BME280;63555;49.920;17.868;2023-02-15T00:03:06;100324.31;;;-0.24;79.81
69911;BME280;63555;49.920;17.868;2023-02-15T00:08:06;100332.09;;;-0.27;79.83
69911;BME280;63555;49.920;17.868;2023-02-15T00:13:07;100336.47;;;-0.34;80.25
69911;BME280;63555;49.920;17.868;2023-02-15T00:18:07;100339.09;;;-0.39;80.22
69911;BME280;63555;49.920;17.868;2023-02-15T00:23:07;100324.41;;;-0.38;80.54
69911;BME280;63555;49.920;17.868;2023-02-15T00:28:08;100326.13;;;-0.37;80.56
69911;BME280;63555;49.920;17.868;2023-02-15T00:33:08;100321.81;;;-0.40;80.31
69911;BME280;63555;49.920;17.868;2023-02-15T00:38:09;100310.59;;;-0.40;80.84
69911;BME280;63555;49.920;17.868;2023-02-15T00:43:09;100314.88;;;-0.35;80.72
69911;BME280;63555;49.920;17.868;2023-02-15T00:48:09;100318.28;;;-0.26;80.90
69911;BME280;63555;49.920;17.868;2023-02-15T00:53:09;100312.16;;;-0.19;80.78
69911;BME280;63555;49.920;17.868;2023-02-15T00:58:11;100306.94;;;-0.15;81.05
69911;BME280;63555;49.920;17.868;2023-02-15T01:03:13;100300.91;;;-0.15;80.53
69911;BME280;63555;49.920;17.868;2023-02-15T01:08:14;100303.50;;;-0.17;80.77
69911;BME280;63555;49.920;17.868;2023-02-15T01:13:15;100290.56;;;-0.20;80.78
69911;BME280;63555;49.920;17.868;2023-02-15T01:18:16;100288.81;;;-0.18;80.75
69911;BME280;63555;49.920;17.868;2023-02-15T01:23:17;100271.56;;;-0.19;80.77
69911;BME280;63555;49.920;17.868;2023-02-15T01:28:17;100269.91;;;-0.27;80.73
69911;BME280;63555;49.920;17.868;2023-02-15T01:33:18;100263.09;;;-0.42;80.83
69911;BME280;63555;49.920;17.868;2023-02-15T01:38:18;100260.56;;;-0.53;80.57
69911;BME280;63555;49.920;17.868;2023-02-15T01:43:19;100260.66;;;-0.63;80.62
69911;BME280;63555;49.920;17.868;2023-02-15T01:48:24;100263.31;;;-0.76;80.79
69911;BME280;63555;49.920;17.868;2023-02-15T01:53:32;100258.19;;;-0.86;80.79
69911;BME280;63555;49.920;17.868;2023-02-15T01:58:35;100251.34;;;-1.00;81.03
69911;BME280;63555;49.920;17.868;2023-02-15T02:08:49;100242.75;;;-1.11;81.82
69911;BME280;63555;49.920;17.868;2023-02-15T02:13:50;100235.00;;;-1.12;81.59
69911;BME280;63555;49.920;17.868;2023-02-15T02:30:02;100207.38;;;-1.12;81.93
69911;BME280;63555;49.920;17.868;2023-02-15T02:40:27;100206.63;;;-1.35;80.66
69911;BME280;63555;49.920;17.868;2023-02-15T02:45:43;100188.63;;;-1.55;80.54
69911;BME280;63555;49.920;17.868;2023-02-15T02:50:45;100187.81;;;-1.72;80.73
69911;BME280;63555;49.920;17.868;2023-02-15T02:56:26;100185.25;;;-1.89;80.22
69911;BME280;63555;49.920;17.868;2023-02-15T03:01:33;100181.84;;;-2.06;80.76
69911;BME280;63555;49.920;17.868;2023-02-15T03:07:08;100197.38;;;-2.26;80.38
69911;BME280;63555;49.920;17.868;2023-02-15T03:12:26;100195.66;;;-2.45;80.55
69911;BME280;63555;49.920;17.868;2023-02-15T03:17:32;100198.22;;;-2.70;80.75
69911;BME280;63555;49.920;17.868;2023-02-15T03:22:40;100197.34;;;-2.85;80.92
69911;BME280;63555;49.920;17.868;2023-02-15T03:27:50;100191.28;;;-2.95;80.89
69911;BME280;63555;49.920;17.868;2023-02-15T03:32:52;100191.28;;;-3.06;80.84
69911;BME280;63555;49.920;17.868;2023-02-15T03:38:00;100195.53;;;-3.22;80.90
69911;BME280;63555;49.920;17.868;2023-02-15T03:43:11;100197.22;;;-3.37;80.79
69911;BME280;63555;49.920;17.868;2023-02-15T03:48:13;100192.03;;;-3.46;81.04
69911;BME280;63555;49.920;17.868;2023-02-15T03:53:17;100202.25;;;-3.54;81.07
69911;BME280;63555;49.920;17.868;2023-02-15T03:58:20;100194.47;;;-3.66;81.07
69911;BME280;63555;49.920;17.868;2023-02-15T04:03:43;100196.16;;;-3.76;81.06
69911;BME280;63555;49.920;17.868;2023-02-15T04:08:45;100202.13;;;-3.86;81.14
69911;BME280;63555;49.920;17.868;2023-02-15T04:14:04;100196.06;;;-3.96;81.23
69911;BME280;63555;49.920;17.868;2023-02-15T04:19:24;100193.41;;;-4.08;80.93
69911;BME280;63555;49.920;17.868;2023-02-15T04:24:43;100194.22;;;-4.15;81.46
69911;BME280;63555;49.920;17.868;2023-02-15T04:30:02;100195.94;;;-4.15;81.57
69911;BME280;63555;49.920;17.868;2023-02-15T04:35:03;100193.34;;;-4.17;81.56
69911;BME280;63555;49.920;17.868;2023-02-15T04:40:05;100189.03;;;-4.20;81.65
69911;BME280;63555;49.920;17.868;2023-02-15T04:45:06;100187.31;;;-4.19;81.80
69911;BME280;63555;49.920;17.868;2023-02-15T04:50:07;100184.75;;;-4.18;81.51
69911;BME280;63555;49.920;17.868;2023-02-15T04:55:07;100185.59;;;-4.22;81.65
69911;BME280;63555;49.920;17.868;2023-02-15T05:00:08;100188.13;;;-4.25;81.65
69911;BME280;63555;49.920;17.868;2023-02-15T05:05:09;100180.38;;;-4.29;81.88
69911;BME280;63555;49.920;17.868;2023-02-15T05:10:12;100180.41;;;-4.26;82.68
69911;BME280;63555;49.920;17.868;2023-02-15T05:15:13;100171.00;;;-4.23;82.80
69911;BME280;63555;49.920;17.868;2023-02-15T05:20:13;100167.56;;;-4.19;82.87
69911;BME280;63555;49.920;17.868;2023-02-15T05:25:14;100177.84;;;-4.26;82.55
69911;BME280;63555;49.920;17.868;2023-02-15T05:30:32;100178.56;;;-4.38;82.18
69911;BME280;63555;49.920;17.868;2023-02-15T05:35:34;100182.81;;;-4.46;82.41
69911;BME280;63555;49.920;17.868;2023-02-15T05:40:34;100189.63;;;-4.51;82.04
69911;BME280;63555;49.920;17.868;2023-02-15T05:45:35;100191.28;;;-4.58;82.15
69911;BME280;63555;49.920;17.868;2023-02-15T05:50:35;100191.25;;;-4.62;82.62
69911;BME280;63555;49.920;17.868;2023-02-15T05:55:39;100195.53;;;-4.64;82.25
69911;BME280;63555;49.920;17.868;2023-02-15T06:00:40;100194.66;;;-4.65;82.35
69911;BME280;63555;49.920;17.868;2023-02-15T06:05:40;100191.25;;;-4.64;82.58
69911;BME280;63555;49.920;17.868;2023-02-15T06:10:41;100191.34;;;-4.52;83.81
69911;BME280;63555;49.920;17.868;2023-02-15T06:15:41;100192.34;;;-4.34;84.33
69911;BME280;63555;49.920;17.868;2023-02-15T06:20:41;100193.38;;;-4.12;84.62
69911;BME280;63555;49.920;17.868;2023-02-15T06:25:42;100193.47;;;-3.96;84.44
69911;BME280;63555;49.920;17.868;2023-02-15T06:30:42;100191.03;;;-3.71;85.02
69911;BME280;63555;49.920;17.868;2023-02-15T06:35:43;100187.75;;;-3.35;85.17
69911;BME280;63555;49.920;17.868;2023-02-15T06:40:43;100188.72;;;-2.84;86.08
69911;BME280;63555;49.920;17.868;2023-02-15T06:45:43;100178.41;;;-2.19;86.88
69911;BME280;63555;49.920;17.868;2023-02-15T06:50:44;100174.88;;;-1.69;85.90
69911;BME280;63555;49.920;17.868;2023-02-15T06:55:44;100173.00;;;-1.34;85.56
69911;BME280;63555;49.920;17.868;2023-02-15T07:00:44;100174.56;;;-1.04;85.69
69911;BME280;63555;49.920;17.868;2023-02-15T07:05:45;100171.84;;;-0.79;85.39
69911;BME280;63555;49.920;17.868;2023-02-15T07:10:48;100163.00;;;-0.55;85.25
69911;BME280;63555;49.920;17.868;2023-02-15T07:15:49;100155.06;;;-0.36;85.14
69911;BME280;63555;49.920;17.868;2023-02-15T07:20:49;100150.59;;;-0.18;85.03
69911;BME280;63555;49.920;17.868;2023-02-15T07:25:56;100150.44;;;0.00;84.92
69911;BME280;63555;49.920;17.868;2023-02-15T07:30:57;100155.34;;;0.24;85.07
69911;BME280;63555;49.920;17.868;2023-02-15T07:35:59;100152.44;;;0.49;84.51
69911;BME280;63555;49.920;17.868;2023-02-15T07:41:03;100149.56;;;0.70;84.41
69911;BME280;63555;49.920;17.868;2023-02-15T07:46:05;100135.59;;;0.79;84.20
69911;BME280;63555;49.920;17.868;2023-02-15T07:51:09;100127.44;;;1.06;84.47
69911;BME280;63555;49.920;17.868;2023-02-15T07:56:11;100117.84;;;1.62;84.46
69911;BME280;63555;49.920;17.868;2023-02-15T08:01:13;100114.41;;;2.51;83.38
69911;BME280;63555;49.920;17.868;2023-02-15T08:06:14;100098.28;;;3.82;81.57
69911;BME280;63555;49.920;17.868;2023-02-15T08:11:19;100091.50;;;5.24;79.63
69911;BME280;63555;49.920;17.868;2023-02-15T08:16:37;100078.53;;;6.45;76.03
69911;BME280;63555;49.920;17.868;2023-02-15T08:21:40;100074.09;;;7.14;74.94
69911;BME280;63555;49.920;17.868;2023-02-15T08:26:41;100071.44;;;7.77;75.34
69911;BME280;63555;49.920;17.868;2023-02-15T08:31:41;100066.09;;;8.96;72.73
69911;BME280;63555;49.920;17.868;2023-02-15T08:36:43;100060.44;;;9.74;70.80
69911;BME280;63555;49.920;17.868;2023-02-15T08:41:47;100054.16;;;10.27;70.85
69911;BME280;63555;49.920;17.868;2023-02-15T08:46:48;100044.81;;;11.31;68.39
69911;BME280;63555;49.920;17.868;2023-02-15T08:51:49;100041.94;;;11.80;63.58
69911;BME280;63555;49.920;17.868;2023-02-15T08:56:50;100043.94;;;11.91;62.55
69911;BME280;63555;49.920;17.868;2023-02-15T09:01:51;100043.88;;;12.21;61.65
69911;BME280;63555;49.920;17.868;2023-02-15T09:06:52;100037.28;;;12.83;58.90
69911;BME280;63555;49.920;17.868;2023-02-15T09:11:52;100038.63;;;13.17;57.01
69911;BME280;63555;49.920;17.868;2023-02-15T09:16:53;100034.44;;;13.13;55.04
69911;BME280;63555;49.920;17.868;2023-02-15T09:21:54;100034.31;;;13.02;54.14
69911;BME280;63555;49.920;17.868;2023-02-15T09:26:56;100033.97;;;13.21;53.22
69911;BME280;63555;49.920;17.868;2023-02-15T09:31:56;100024.22;;;13.74;52.93
69911;BME280;63555;49.920;17.868;2023-02-15T09:36:56;100030.41;;;14.12;50.98
69911;BME280;63555;49.920;17.868;2023-02-15T09:52:20;100029.72;;;15.90;48.91
69911;BME280;63555;49.920;17.868;2023-02-15T10:08:26;100017.44;;;15.30;46.20
69911;BME280;63555;49.920;17.868;2023-02-15T10:13:44;100025.09;;;15.46;45.90
69911;BME280;63555;49.920;17.868;2023-02-15T10:29:40;100004.41;;;15.62;45.06
69911;BME280;63555;49.920;17.868;2023-02-15T10:34:51;100009.56;;;16.10;44.51
69911;BME280;63555;49.920;17.868;2023-02-15T10:50:48;99986.13;;;17.24;42.50
69911;BME280;63555;49.920;17.868;2023-02-15T11:00:58;99974.50;;;16.93;41.98
69911;BME280;63555;49.920;17.868;2023-02-15T11:06:08;99955.31;;;16.55;42.07
69911;BME280;63555;49.920;17.868;2023-02-15T11:11:38;99955.31;;;16.67;41.63
69911;BME280;63555;49.920;17.868;2023-02-15T11:16:44;99956.22;;;16.88;41.08
69911;BME280;63555;49.920;17.868;2023-02-15T11:21:49;99949.97;;;16.78;41.28
69911;BME280;63555;49.920;17.868;2023-02-15T11:27:03;99943.56;;;16.69;40.94
69911;BME280;63555;49.920;17.868;2023-02-15T11:32:31;99941.50;;;17.05;41.00
69911;BME280;63555;49.920;17.868;2023-02-15T11:37:37;99927.78;;;17.93;40.02
69911;BME280;63555;49.920;17.868;2023-02-15T11:42:40;99928.22;;;18.28;39.68
69911;BME280;63555;49.920;17.868;2023-02-15T11:47:41;99937.19;;;18.27;38.66
69911;BME280;63555;49.920;17.868;2023-02-15T11:52:42;99920.56;;;17.83;38.95
69911;BME280;63555;49.920;17.868;2023-02-15T11:57:48;99923.50;;;17.60;39.09
69911;BME280;63555;49.920;17.868;2023-02-15T12:02:53;99915.63;;;17.79;38.64
69911;BME280;63555;49.920;17.868;2023-02-15T12:08:00;99923.38;;;17.82;38.87
69911;BME280;63555;49.920;17.868;2023-02-15T12:13:15;99914.66;;;17.80;38.06
69911;BME280;63555;49.920;17.868;2023-02-15T12:18:37;99916.31;;;18.11;37.60
69911;BME280;63555;49.920;17.868;2023-02-15T12:23:51;99906.59;;;17.70;37.32
69911;BME280;63555;49.920;17.868;2023-02-15T12:28:53;99897.03;;;17.26;37.61
69911;BME280;63555;49.920;17.868;2023-02-15T12:33:56;99899.63;;;16.96;38.46
69911;BME280;63555;49.920;17.868;2023-02-15T12:44:18;99888.88;;;16.65;38.56
69911;BME280;63555;49.920;17.868;2023-02-15T12:49:20;99883.94;;;16.38;38.34
69911;BME280;63555;49.920;17.868;2023-02-15T12:54:53;99875.91;;;15.95;38.93
69911;BME280;63555;49.920;17.868;2023-02-15T13:05:35;99879.56;;;15.14;39.87
69911;BME280;63555;49.920;17.868;2023-02-15T13:10:40;99870.16;;;15.33;39.47
69911;BME280;63555;49.920;17.868;2023-02-15T13:15:44;99867.72;;;15.07;39.94
69911;BME280;63555;49.920;17.868;2023-02-15T13:20:48;99861.91;;;14.43;40.65
69911;BME280;63555;49.920;17.868;2023-02-15T13:25:49;99859.06;;;13.22;42.35
69911;BME280;63555;49.920;17.868;2023-02-15T13:30:51;99853.09;;;11.29;44.80
69911;BME280;63555;49.920;17.868;2023-02-15T13:40:59;99846.75;;;9.96;47.61
69911;BME280;63555;49.920;17.868;2023-02-15T13:52:14;99840.63;;;10.27;46.75
69911;BME280;63555;49.920;17.868;2023-02-15T14:19:49;99842.25;;;6.35;54.00
69911;BME280;63555;49.920;17.868;2023-02-15T14:30:15;99841.03;;;5.77;55.69
69911;BME280;63555;49.920;17.868;2023-02-15T14:35:24;99836.75;;;5.53;56.59
69911;BME280;63555;49.920;17.868;2023-02-15T14:51:53;99832.41;;;4.80;58.79
69911;BME280;63555;49.920;17.868;2023-02-15T15:22:34;99826.84;;;3.85;60.82
69911;BME280;63555;49.920;17.868;2023-02-15T15:27:48;99824.72;;;3.70;60.96
69911;BME280;63555;49.920;17.868;2023-02-15T15:43:32;99821.53;;;3.00;62.99
69911;BME280;63555;49.920;17.868;2023-02-15T15:48:39;99827.28;;;2.80;63.48
69911;BME280;63555;49.920;17.868;2023-02-15T15:53:43;99824.34;;;2.60;64.01
69911;BME280;63555;49.920;17.868;2023-02-15T15:58:51;99820.47;;;2.42;64.59
69911;BME280;63555;49.920;17.868;2023-02-15T16:03:55;99828.69;;;2.25;64.92
69911;BME280;63555;49.920;17.868;2023-02-15T16:08:56;99834.38;;;2.05;65.46
69911;BME280;63555;49.920;17.868;2023-02-15T16:13:56;99845.97;;;1.92;65.83
69911;BME280;63555;49.920;17.868;2023-02-15T16:18:57;99829.88;;;1.76;67.07
69911;BME280;63555;49.920;17.868;2023-02-15T16:29:29;99841.63;;;1.52;66.89
69911;BME280;63555;49.920;17.868;2023-02-15T16:34:30;99830.72;;;1.37;67.98
69911;BME280;63555;49.920;17.868;2023-02-15T16:39:40;99826.59;;;1.26;67.78
69911;BME280;63555;49.920;17.868;2023-02-15T16:44:41;99811.13;;;1.20;68.22
69911;BME280;63555;49.920;17.868;2023-02-15T16:49:45;99814.59;;;1.21;68.68
69911;BME280;63555;49.920;17.868;2023-02-15T16:54:57;99810.28;;;1.20;69.42
69911;BME280;63555;49.920;17.868;2023-02-15T17:00:03;99820.56;;;1.24;69.55
69911;BME280;63555;49.920;17.868;2023-02-15T17:10:41;99814.38;;;1.32;70.55
69911;BME280;63555;49.920;17.868;2023-02-15T17:21:08;99820.41;;;1.32;71.32
69911;BME280;63555;49.920;17.868;2023-02-15T17:26:31;99797.81;;;1.36;71.44
69911;BME280;63555;49.920;17.868;2023-02-15T17:31:33;99793.47;;;1.36;71.87
69911;BME280;63555;49.920;17.868;2023-02-15T17:36:33;99794.44;;;1.32;71.66
69911;BME280;63555;49.920;17.868;2023-02-15T17:41:35;99792.75;;;1.30;72.05
69911;BME280;63555;49.920;17.868;2023-02-15T17:46:37;99791.88;;;1.31;71.83
69911;BME280;63555;49.920;17.868;2023-02-15T17:51:37;99798.84;;;1.28;71.90
69911;BME280;63555;49.920;17.868;2023-02-15T17:56:38;99785.88;;;1.27;72.08
69911;BME280;63555;49.920;17.868;2023-02-15T18:01:48;99779.06;;;1.21;72.14
69911;BME280;63555;49.920;17.868;2023-02-15T18:07:09;99782.50;;;1.23;72.82
69911;BME280;63555;49.920;17.868;2023-02-15T18:12:30;99782.34;;;1.31;72.34
69911;BME280;63555;49.920;17.868;2023-02-15T18:17:39;99778.03;;;1.30;72.43
69911;BME280;63555;49.920;17.868;2023-02-15T18:22:40;99783.38;;;1.22;72.55
69911;BME280;63555;49.920;17.868;2023-02-15T18:27:41;99775.59;;;1.22;72.73
69911;BME280;63555;49.920;17.868;2023-02-15T18:32:42;99781.78;;;1.17;72.60
69911;BME280;63555;49.920;17.868;2023-02-15T18:37:43;99779.19;;;1.17;73.27
69911;BME280;63555;49.920;17.868;2023-02-15T18:42:44;99776.75;;;1.09;72.79
69911;BME280;63555;49.920;17.868;2023-02-15T18:47:48;99769.81;;;1.10;73.18
69911;BME280;63555;49.920;17.868;2023-02-15T18:52:49;99774.97;;;1.11;73.27
69911;BME280;63555;49.920;17.868;2023-02-15T18:57:52;99778.56;;;1.04;72.97
69911;BME280;63555;49.920;17.868;2023-02-15T19:02:54;99780.47;;;0.96;72.91
69911;BME280;63555;49.920;17.868;2023-02-15T19:07:56;99789.19;;;0.93;73.42
69911;BME280;63555;49.920;17.868;2023-02-15T19:12:57;99772.84;;;0.88;73.37
69911;BME280;63555;49.920;17.868;2023-02-15T19:17:58;99765.97;;;0.84;73.75
69911;BME280;63555;49.920;17.868;2023-02-15T19:22:59;99766.13;;;0.77;73.66
69911;BME280;63555;49.920;17.868;2023-02-15T19:28:08;99760.16;;;0.72;73.98
69911;BME280;63555;49.920;17.868;2023-02-15T19:33:18;99761.88;;;0.73;74.04
69911;BME280;63555;49.920;17.868;2023-02-15T19:38:23;99759.41;;;0.67;73.59
69911;BME280;63555;49.920;17.868;2023-02-15T19:43:24;99754.47;;;0.53;74.31
69911;BME280;63555;49.920;17.868;2023-02-15T19:48:26;99751.25;;;0.42;74.40
69911;BME280;63555;49.920;17.868;2023-02-15T19:53:27;99754.09;;;0.28;74.00
69911;BME280;63555;49.920;17.868;2023-02-15T19:58:28;99752.56;;;0.16;74.60
69911;BME280;63555;49.920;17.868;2023-02-15T20:03:29;99736.44;;;0.01;74.69
69911;BME280;63555;49.920;17.868;2023-02-15T20:08:30;99734.00;;;-0.12;74.80
69911;BME280;63555;49.920;17.868;2023-02-15T20:13:30;99737.59;;;-0.19;75.52
69911;BME280;63555;49.920;17.868;2023-02-15T20:18:31;99730.78;;;-0.24;75.40
69911;BME280;63555;49.920;17.868;2023-02-15T20:23:34;99730.00;;;-0.31;75.76
69911;BME280;63555;49.920;17.868;2023-02-15T20:28:35;99733.59;;;-0.40;75.54
69911;BME280;63555;49.920;17.868;2023-02-15T20:33:35;99736.34;;;-0.49;75.72
69911;BME280;63555;49.920;17.868;2023-02-15T20:38:35;99734.72;;;-0.56;76.09
69911;BME280;63555;49.920;17.868;2023-02-15T20:43:36;99728.66;;;-0.55;76.38
69911;BME280;63555;49.920;17.868;2023-02-15T20:48:37;99730.34;;;-0.52;76.37
69911;BME280;63555;49.920;17.868;2023-02-15T20:53:37;99726.88;;;-0.51;76.16
69911;BME280;63555;49.920;17.868;2023-02-15T20:58:38;99730.31;;;-0.49;76.52
69911;BME280;63555;49.920;17.868;2023-02-15T21:03:41;99714.72;;;-0.46;76.76
69911;BME280;63555;49.920;17.868;2023-02-15T21:08:41;99721.53;;;-0.41;77.14
69911;BME280;63555;49.920;17.868;2023-02-15T21:13:42;99716.31;;;-0.39;77.27
69911;BME280;63555;49.920;17.868;2023-02-15T21:18:43;99713.66;;;-0.35;77.02
69911;BME280;63555;49.920;17.868;2023-02-15T21:23:43;99706.75;;;-0.34;77.07
69911;BME280;63555;49.920;17.868;2023-02-15T21:28:44;99703.28;;;-0.33;77.27
69911;BME280;63555;49.920;17.868;2023-02-15T21:33:44;99704.97;;;-0.32;77.39
69911;BME280;63555;49.920;17.868;2023-02-15T21:38:45;99687.69;;;-0.32;77.90
69911;BME280;63555;49.920;17.868;2023-02-15T21:43:46;99688.59;;;-0.34;77.97
69911;BME280;63555;49.920;17.868;2023-02-15T21:49:05;99680.94;;;-0.40;77.89
69911;BME280;63555;49.920;17.868;2023-02-15T21:54:10;99691.47;;;-0.51;77.87
69911;BME280;63555;49.920;17.868;2023-02-15T21:59:11;99694.22;;;-0.61;77.74
69911;BME280;63555;49.920;17.868;2023-02-15T22:04:14;99691.91;;;-0.78;77.53
69911;BME280;63555;49.920;17.868;2023-02-15T22:09:17;99693.78;;;-0.91;78.00
69911;BME280;63555;49.920;17.868;2023-02-15T22:14:36;99700.81;;;-0.99;78.13
69911;BME280;63555;49.920;17.868;2023-02-15T22:19:37;99694.81;;;-1.03;78.64
69911;BME280;63555;49.920;17.868;2023-02-15T22:24:38;99690.50;;;-1.04;78.46
69911;BME280;63555;49.920;17.868;2023-02-15T22:29:38;99688.78;;;-1.03;78.66
69911;BME280;63555;49.920;17.868;2023-02-15T22:34:38;99688.81;;;-1.06;78.33
69911;BME280;63555;49.920;17.868;2023-02-15T22:39:39;99681.16;;;-1.12;78.44
69911;BME280;63555;49.920;17.868;2023-02-15T22:44:40;99681.88;;;-1.03;79.03
69911;BME280;63555;49.920;17.868;2023-02-15T22:49:40;99665.41;;;-0.99;78.58
69911;BME280;63555;49.920;17.868;2023-02-15T22:54:41;99667.25;;;-1.07;78.66
69911;BME280;63555;49.920;17.868;2023-02-15T22:59:42;99662.19;;;-1.14;78.46
69911;BME280;63555;49.920;17.868;2023-02-15T23:04:43;99661.44;;;-1.22;78.25
69911;BME280;63555;49.920;17.868;2023-02-15T23:09:44;99664.13;;;-1.29;79.20
69911;BME280;63555;49.920;17.868;2023-02-15T23:14:45;99667.53;;;-1.25;79.28
69911;BME280;63555;49.920;17.868;2023-02-15T23:19:45;99660.56;;;-1.20;79.15
69911;BME280;63555;49.920;17.868;2023-02-15T23:24:50;99655.38;;;-1.20;79.03
69911;BME280;63555;49.920;17.868;2023-02-15T23:29:51;99648.53;;;-1.24;79.16
69911;BME280;63555;49.920;17.868;2023-02-15T23:34:51;99648.59;;;-1.29;79.43
69911;BME280;63555;49.920;17.868;2023-02-15T23:39:52;99653.78;;;-1.30;79.14
69911;BME280;63555;49.920;17.868;2023-02-15T23:45:20;99653.78;;;-1.29;79.44
69911;BME280;63555;49.920;17.868;2023-02-15T23:50:28;99648.66;;;-1.33;79.56
69911;BME280;63555;49.920;17.868;2023-02-15T23:55:34;99648.69;;;-1.36;79.37
